sensor_id;sensor_type;location;lat;lon;timestamp;P1;durP1;ratioP1;P2;durP2;ratioP2
20627;SDS011;10473;42.734;24.258;2022-10-31T00:01:11;1.43;;;0.90;;
20627;SDS011;10473;42.734;24.258;2022-10-31T00:03:40;1.90;;;0.80;;
20627;SDS011;10473;42.734;24.258;2022-10-31T00:06:08;2.00;;;1.20;;
20627;SDS011;10473;42.734;24.258;2022-10-31T00:08:37;3.23;;;0.90;;
20627;SDS011;10473;42.734;24.258;2022-10-31T00:11:08;2.57;;;1.30;;
20627;SDS011;10473;42.734;24.258;2022-10-31T00:13:36;2.27;;;1.10;;
20627;SDS011;10473;42.734;24.258;2022-10-31T00:16:04;1.13;;;1.03;;
20627;SDS011;10473;42.734;24.258;2022-10-31T00:18:32;1.27;;;0.90;;
20627;SDS011;10473;42.734;24.258;2022-10-31T00:21:00;3.53;;;2.47;;
20627;SDS011;10473;42.734;24.258;2022-10-31T00:23:27;1.63;;;0.80;;
20627;SDS011;10473;42.734;24.258;2022-10-31T00:26:01;1.10;;;1.00;;
20627;SDS011;10473;42.734;24.258;2022-10-31T00:28:29;1.40;;;1.30;;
20627;SDS011;10473;42.734;24.258;2022-10-31T00:30:58;1.07;;;0.90;;
20627;SDS011;10473;42.734;24.258;2022-10-31T00:33:27;3.17;;;1.17;;
20627;SDS011;10473;42.734;24.258;2022-10-31T00:35:55;1.77;;;0.97;;
20627;SDS011;10473;42.734;24.258;2022-10-31T00:38:23;2.23;;;0.63;;
20627;SDS011;10473;42.734;24.258;2022-10-31T00:40:51;3.10;;;0.90;;
20627;SDS011;10473;42.734;24.258;2022-10-31T00:43:20;1.93;;;1.20;;
20627;SDS011;10473;42.734;24.258;2022-10-31T00:45:48;1.67;;;1.23;;
20627;SDS011;10473;42.734;24.258;2022-10-31T00:48:16;2.60;;;0.90;;
20627;SDS011;10473;42.734;24.258;2022-10-31T00:50:43;1.53;;;1.30;;
20627;SDS011;10473;42.734;24.258;2022-10-31T00:53:12;1.60;;;1.50;;
20627;SDS011;10473;42.734;24.258;2022-10-31T00:55:40;1.90;;;1.20;;
20627;SDS011;10473;42.734;24.258;2022-10-31T00:58:08;4.20;;;1.60;;
20627;SDS011;10473;42.734;24.258;2022-10-31T01:00:37;2.67;;;1.50;;
20627;SDS011;10473;42.734;24.258;2022-10-31T01:03:05;1.30;;;1.20;;
20627;SDS011;10473;42.734;24.258;2022-10-31T01:05:36;2.00;;;1.20;;
20627;SDS011;10473;42.734;24.258;2022-10-31T01:08:04;2.17;;;1.87;;
20627;SDS011;10473;42.734;24.258;2022-10-31T01:10:32;0.80;;;0.70;;
20627;SDS011;10473;42.734;24.258;2022-10-31T01:12:59;1.00;;;0.80;;
20627;SDS011;10473;42.734;24.258;2022-10-31T01:15:27;3.00;;;1.30;;
20627;SDS011;10473;42.734;24.258;2022-10-31T01:17:56;5.53;;;3.00;;
20627;SDS011;10473;42.734;24.258;2022-10-31T01:20:24;7.77;;;3.07;;
20627;SDS011;10473;42.734;24.258;2022-10-31T01:22:54;3.63;;;2.20;;
20627;SDS011;10473;42.734;24.258;2022-10-31T01:25:23;2.67;;;2.03;;
20627;SDS011;10473;42.734;24.258;2022-10-31T01:27:51;1.20;;;1.10;;
20627;SDS011;10473;42.734;24.258;2022-10-31T01:30:19;4.60;;;1.63;;
20627;SDS011;10473;42.734;24.258;2022-10-31T01:32:46;25.13;;;11.80;;
20627;SDS011;10473;42.734;24.258;2022-10-31T01:35:16;23.87;;;10.13;;
20627;SDS011;10473;42.734;24.258;2022-10-31T01:37:44;8.33;;;4.33;;
20627;SDS011;10473;42.734;24.258;2022-10-31T01:40:11;4.80;;;2.33;;
20627;SDS011;10473;42.734;24.258;2022-10-31T01:42:40;2.80;;;2.10;;
20627;SDS011;10473;42.734;24.258;2022-10-31T01:45:09;2.67;;;1.60;;
20627;SDS011;10473;42.734;24.258;2022-10-31T01:47:38;2.77;;;1.80;;
20627;SDS011;10473;42.734;24.258;2022-10-31T01:50:12;1.97;;;1.57;;
20627;SDS011;10473;42.734;24.258;2022-10-31T01:52:49;1.17;;;0.90;;
20627;SDS011;10473;42.734;24.258;2022-10-31T01:55:20;2.13;;;1.10;;
20627;SDS011;10473;42.734;24.258;2022-10-31T01:57:53;1.23;;;1.10;;
20627;SDS011;10473;42.734;24.258;2022-10-31T02:00:24;1.07;;;0.97;;
20627;SDS011;10473;42.734;24.258;2022-10-31T02:02:52;2.00;;;1.17;;
20627;SDS011;10473;42.734;24.258;2022-10-31T02:05:24;1.13;;;1.03;;
20627;SDS011;10473;42.734;24.258;2022-10-31T02:07:55;1.97;;;1.20;;
20627;SDS011;10473;42.734;24.258;2022-10-31T02:10:29;2.27;;;0.90;;
20627;SDS011;10473;42.734;24.258;2022-10-31T02:12:59;1.80;;;1.20;;
20627;SDS011;10473;42.734;24.258;2022-10-31T02:15:30;1.97;;;1.30;;
20627;SDS011;10473;42.734;24.258;2022-10-31T02:17:59;2.30;;;1.40;;
20627;SDS011;10473;42.734;24.258;2022-10-31T02:20:29;1.93;;;1.30;;
20627;SDS011;10473;42.734;24.258;2022-10-31T02:23:14;6.00;;;2.67;;
20627;SDS011;10473;42.734;24.258;2022-10-31T02:26:16;3.07;;;1.60;;
20627;SDS011;10473;42.734;24.258;2022-10-31T02:32:26;2.60;;;1.53;;
20627;SDS011;10473;42.734;24.258;2022-10-31T02:34:58;1.43;;;1.30;;
20627;SDS011;10473;42.734;24.258;2022-10-31T02:37:37;3.30;;;1.30;;
20627;SDS011;10473;42.734;24.258;2022-10-31T02:40:10;2.87;;;1.53;;
20627;SDS011;10473;42.734;24.258;2022-10-31T02:43:05;3.10;;;1.13;;
20627;SDS011;10473;42.734;24.258;2022-10-31T02:45:41;2.67;;;1.60;;
20627;SDS011;10473;42.734;24.258;2022-10-31T02:48:18;1.47;;;1.20;;
20627;SDS011;10473;42.734;24.258;2022-10-31T02:50:49;3.33;;;2.03;;
20627;SDS011;10473;42.734;24.258;2022-10-31T02:53:21;3.20;;;1.40;;
20627;SDS011;10473;42.734;24.258;2022-10-31T02:55:50;2.93;;;2.10;;
20627;SDS011;10473;42.734;24.258;2022-10-31T02:58:24;3.13;;;2.10;;
20627;SDS011;10473;42.734;24.258;2022-10-31T03:01:04;4.80;;;1.50;;
20627;SDS011;10473;42.734;24.258;2022-10-31T03:03:50;1.80;;;1.27;;
20627;SDS011;10473;42.734;24.258;2022-10-31T03:06:30;1.70;;;1.60;;
20627;SDS011;10473;42.734;24.258;2022-10-31T03:09:07;1.93;;;1.43;;
20627;SDS011;10473;42.734;24.258;2022-10-31T03:11:42;1.97;;;1.37;;
20627;SDS011;10473;42.734;24.258;2022-10-31T03:14:17;2.13;;;1.50;;
20627;SDS011;10473;42.734;24.258;2022-10-31T03:16:57;1.53;;;1.20;;
20627;SDS011;10473;42.734;24.258;2022-10-31T03:19:33;1.63;;;1.23;;
20627;SDS011;10473;42.734;24.258;2022-10-31T03:22:07;1.30;;;1.20;;
20627;SDS011;10473;42.734;24.258;2022-10-31T03:24:39;1.40;;;0.83;;
20627;SDS011;10473;42.734;24.258;2022-10-31T03:27:09;2.07;;;1.23;;
20627;SDS011;10473;42.734;24.258;2022-10-31T03:29:40;2.00;;;1.10;;
20627;SDS011;10473;42.734;24.258;2022-10-31T03:32:09;1.43;;;1.20;;
20627;SDS011;10473;42.734;24.258;2022-10-31T03:34:45;1.67;;;1.33;;
20627;SDS011;10473;42.734;24.258;2022-10-31T03:37:16;1.43;;;1.33;;
20627;SDS011;10473;42.734;24.258;2022-10-31T03:39:49;2.00;;;1.50;;
20627;SDS011;10473;42.734;24.258;2022-10-31T03:42:21;3.63;;;1.30;;
20627;SDS011;10473;42.734;24.258;2022-10-31T03:44:52;1.23;;;1.10;;
20627;SDS011;10473;42.734;24.258;2022-10-31T03:47:23;2.67;;;1.20;;
20627;SDS011;10473;42.734;24.258;2022-10-31T03:49:53;3.37;;;1.83;;
20627;SDS011;10473;42.734;24.258;2022-10-31T03:52:23;2.50;;;1.33;;
20627;SDS011;10473;42.734;24.258;2022-10-31T03:54:56;3.87;;;1.40;;
20627;SDS011;10473;42.734;24.258;2022-10-31T03:57:32;2.60;;;1.67;;
20627;SDS011;10473;42.734;24.258;2022-10-31T04:00:05;1.17;;;0.97;;
20627;SDS011;10473;42.734;24.258;2022-10-31T04:02:44;4.27;;;1.33;;
20627;SDS011;10473;42.734;24.258;2022-10-31T04:05:19;1.20;;;1.10;;
20627;SDS011;10473;42.734;24.258;2022-10-31T04:07:49;2.00;;;1.17;;
20627;SDS011;10473;42.734;24.258;2022-10-31T04:10:20;4.67;;;1.83;;
20627;SDS011;10473;42.734;24.258;2022-10-31T04:12:50;2.93;;;1.50;;
20627;SDS011;10473;42.734;24.258;2022-10-31T04:15:27;2.63;;;1.60;;
20627;SDS011;10473;42.734;24.258;2022-10-31T04:17:59;2.53;;;1.80;;
20627;SDS011;10473;42.734;24.258;2022-10-31T04:20:33;1.90;;;1.53;;
20627;SDS011;10473;42.734;24.258;2022-10-31T04:23:03;2.00;;;1.57;;
20627;SDS011;10473;42.734;24.258;2022-10-31T04:25:31;2.97;;;1.50;;
20627;SDS011;10473;42.734;24.258;2022-10-31T04:28:00;1.20;;;1.10;;
20627;SDS011;10473;42.734;24.258;2022-10-31T04:30:29;1.63;;;1.33;;
20627;SDS011;10473;42.734;24.258;2022-10-31T04:32:57;2.90;;;2.00;;
20627;SDS011;10473;42.734;24.258;2022-10-31T04:35:24;1.83;;;1.43;;
20627;SDS011;10473;42.734;24.258;2022-10-31T04:37:55;1.97;;;1.17;;
20627;SDS011;10473;42.734;24.258;2022-10-31T04:40:23;3.77;;;1.00;;
20627;SDS011;10473;42.734;24.258;2022-10-31T04:42:57;2.23;;;1.30;;
20627;SDS011;10473;42.734;24.258;2022-10-31T04:45:24;1.23;;;1.00;;
20627;SDS011;10473;42.734;24.258;2022-10-31T04:47:53;1.90;;;1.47;;
20627;SDS011;10473;42.734;24.258;2022-10-31T04:50:22;1.77;;;1.20;;
20627;SDS011;10473;42.734;24.258;2022-10-31T04:52:50;4.40;;;1.20;;
20627;SDS011;10473;42.734;24.258;2022-10-31T04:55:25;1.60;;;1.03;;
20627;SDS011;10473;42.734;24.258;2022-10-31T04:58:11;3.10;;;1.53;;
20627;SDS011;10473;42.734;24.258;2022-10-31T05:00:39;1.30;;;1.20;;
20627;SDS011;10473;42.734;24.258;2022-10-31T05:03:07;2.00;;;1.60;;
20627;SDS011;10473;42.734;24.258;2022-10-31T05:05:34;2.63;;;1.97;;
20627;SDS011;10473;42.734;24.258;2022-10-31T05:08:03;2.30;;;1.97;;
20627;SDS011;10473;42.734;24.258;2022-10-31T05:10:38;3.47;;;1.87;;
20627;SDS011;10473;42.734;24.258;2022-10-31T05:13:08;4.77;;;1.43;;
20627;SDS011;10473;42.734;24.258;2022-10-31T05:15:55;1.23;;;1.13;;
20627;SDS011;10473;42.734;24.258;2022-10-31T05:18:41;4.80;;;2.57;;
20627;SDS011;10473;42.734;24.258;2022-10-31T05:21:27;2.43;;;1.70;;
20627;SDS011;10473;42.734;24.258;2022-10-31T05:24:03;5.27;;;1.80;;
20627;SDS011;10473;42.734;24.258;2022-10-31T05:26:36;3.07;;;1.77;;
20627;SDS011;10473;42.734;24.258;2022-10-31T05:29:03;2.23;;;2.00;;
20627;SDS011;10473;42.734;24.258;2022-10-31T05:31:31;3.77;;;1.77;;
20627;SDS011;10473;42.734;24.258;2022-10-31T05:34:00;1.43;;;1.27;;
20627;SDS011;10473;42.734;24.258;2022-10-31T05:36:46;1.80;;;1.17;;
20627;SDS011;10473;42.734;24.258;2022-10-31T05:39:16;2.53;;;1.30;;
20627;SDS011;10473;42.734;24.258;2022-10-31T05:41:54;2.47;;;1.03;;
20627;SDS011;10473;42.734;24.258;2022-10-31T05:44:26;3.83;;;1.60;;
20627;SDS011;10473;42.734;24.258;2022-10-31T05:47:18;1.93;;;1.37;;
20627;SDS011;10473;42.734;24.258;2022-10-31T05:50:09;3.93;;;1.67;;
20627;SDS011;10473;42.734;24.258;2022-10-31T05:53:01;2.83;;;1.37;;
20627;SDS011;10473;42.734;24.258;2022-10-31T05:55:35;2.10;;;1.10;;
20627;SDS011;10473;42.734;24.258;2022-10-31T05:58:13;4.07;;;1.53;;
20627;SDS011;10473;42.734;24.258;2022-10-31T06:00:48;6.87;;;1.70;;
20627;SDS011;10473;42.734;24.258;2022-10-31T06:03:18;6.17;;;1.53;;
20627;SDS011;10473;42.734;24.258;2022-10-31T06:05:55;3.20;;;1.80;;
20627;SDS011;10473;42.734;24.258;2022-10-31T06:08:36;2.77;;;1.57;;
20627;SDS011;10473;42.734;24.258;2022-10-31T06:11:12;1.83;;;1.57;;
20627;SDS011;10473;42.734;24.258;2022-10-31T06:14:00;2.03;;;1.50;;
20627;SDS011;10473;42.734;24.258;2022-10-31T06:16:50;4.27;;;1.67;;
20627;SDS011;10473;42.734;24.258;2022-10-31T06:19:46;3.70;;;1.77;;
20627;SDS011;10473;42.734;24.258;2022-10-31T06:22:19;2.83;;;2.53;;
20627;SDS011;10473;42.734;24.258;2022-10-31T06:24:47;3.10;;;2.30;;
20627;SDS011;10473;42.734;24.258;2022-10-31T06:27:36;4.70;;;2.90;;
20627;SDS011;10473;42.734;24.258;2022-10-31T06:30:12;4.67;;;3.10;;
20627;SDS011;10473;42.734;24.258;2022-10-31T06:32:40;6.77;;;2.93;;
20627;SDS011;10473;42.734;24.258;2022-10-31T06:35:09;2.30;;;1.70;;
20627;SDS011;10473;42.734;24.258;2022-10-31T06:37:39;2.17;;;1.63;;
20627;SDS011;10473;42.734;24.258;2022-10-31T06:40:27;5.50;;;1.50;;
20627;SDS011;10473;42.734;24.258;2022-10-31T06:43:13;1.90;;;1.27;;
20627;SDS011;10473;42.734;24.258;2022-10-31T06:45:43;1.90;;;1.40;;
20627;SDS011;10473;42.734;24.258;2022-10-31T06:48:46;4.00;;;1.63;;
20627;SDS011;10473;42.734;24.258;2022-10-31T06:51:33;1.33;;;1.10;;
20627;SDS011;10473;42.734;24.258;2022-10-31T06:54:01;3.23;;;1.23;;
20627;SDS011;10473;42.734;24.258;2022-10-31T06:56:31;3.53;;;1.70;;
20627;SDS011;10473;42.734;24.258;2022-10-31T06:58:59;2.37;;;1.77;;
20627;SDS011;10473;42.734;24.258;2022-10-31T07:01:48;1.87;;;1.30;;
20627;SDS011;10473;42.734;24.258;2022-10-31T07:04:17;2.00;;;1.80;;
20627;SDS011;10473;42.734;24.258;2022-10-31T07:06:49;2.80;;;2.10;;
20627;SDS011;10473;42.734;24.258;2022-10-31T07:09:18;2.63;;;1.47;;
20627;SDS011;10473;42.734;24.258;2022-10-31T07:11:47;2.03;;;1.67;;
20627;SDS011;10473;42.734;24.258;2022-10-31T07:14:15;2.33;;;1.97;;
20627;SDS011;10473;42.734;24.258;2022-10-31T07:16:49;2.70;;;1.90;;
20627;SDS011;10473;42.734;24.258;2022-10-31T07:19:22;3.47;;;1.50;;
20627;SDS011;10473;42.734;24.258;2022-10-31T07:21:50;2.23;;;1.60;;
20627;SDS011;10473;42.734;24.258;2022-10-31T07:24:20;2.17;;;1.73;;
20627;SDS011;10473;42.734;24.258;2022-10-31T07:27:22;4.27;;;1.67;;
20627;SDS011;10473;42.734;24.258;2022-10-31T07:29:52;1.97;;;1.80;;
20627;SDS011;10473;42.734;24.258;2022-10-31T07:32:21;6.37;;;2.23;;
20627;SDS011;10473;42.734;24.258;2022-10-31T07:34:56;2.77;;;2.10;;
20627;SDS011;10473;42.734;24.258;2022-10-31T07:37:32;2.37;;;1.57;;
20627;SDS011;10473;42.734;24.258;2022-10-31T07:40:00;3.13;;;1.80;;
20627;SDS011;10473;42.734;24.258;2022-10-31T07:42:34;1.90;;;1.37;;
20627;SDS011;10473;42.734;24.258;2022-10-31T07:45:03;2.73;;;1.73;;
20627;SDS011;10473;42.734;24.258;2022-10-31T07:47:53;2.07;;;1.57;;
20627;SDS011;10473;42.734;24.258;2022-10-31T07:50:58;2.20;;;1.80;;
20627;SDS011;10473;42.734;24.258;2022-10-31T07:53:51;2.27;;;2.07;;
20627;SDS011;10473;42.734;24.258;2022-10-31T07:56:29;3.77;;;1.83;;
20627;SDS011;10473;42.734;24.258;2022-10-31T07:59:00;6.87;;;2.00;;
20627;SDS011;10473;42.734;24.258;2022-10-31T08:01:28;3.10;;;1.70;;
20627;SDS011;10473;42.734;24.258;2022-10-31T08:04:32;3.97;;;2.40;;
20627;SDS011;10473;42.734;24.258;2022-10-31T08:07:39;2.00;;;1.53;;
20627;SDS011;10473;42.734;24.258;2022-10-31T08:10:18;2.23;;;1.63;;
20627;SDS011;10473;42.734;24.258;2022-10-31T08:12:47;1.97;;;1.73;;
20627;SDS011;10473;42.734;24.258;2022-10-31T08:15:22;3.83;;;1.80;;
20627;SDS011;10473;42.734;24.258;2022-10-31T08:17:51;2.27;;;1.90;;
20627;SDS011;10473;42.734;24.258;2022-10-31T08:20:21;2.40;;;1.73;;
20627;SDS011;10473;42.734;24.258;2022-10-31T08:22:57;2.67;;;2.40;;
20627;SDS011;10473;42.734;24.258;2022-10-31T08:25:30;6.70;;;2.27;;
20627;SDS011;10473;42.734;24.258;2022-10-31T08:28:01;2.87;;;2.00;;
20627;SDS011;10473;42.734;24.258;2022-10-31T08:30:31;3.83;;;2.00;;
20627;SDS011;10473;42.734;24.258;2022-10-31T08:33:31;2.10;;;1.77;;
20627;SDS011;10473;42.734;24.258;2022-10-31T08:36:19;2.73;;;1.67;;
20627;SDS011;10473;42.734;24.258;2022-10-31T08:39:06;3.57;;;2.20;;
20627;SDS011;10473;42.734;24.258;2022-10-31T08:41:33;4.40;;;2.13;;
20627;SDS011;10473;42.734;24.258;2022-10-31T08:44:02;3.67;;;2.47;;
20627;SDS011;10473;42.734;24.258;2022-10-31T08:46:31;2.33;;;2.13;;
20627;SDS011;10473;42.734;24.258;2022-10-31T08:49:00;3.17;;;2.00;;
20627;SDS011;10473;42.734;24.258;2022-10-31T08:51:30;3.60;;;2.53;;
20627;SDS011;10473;42.734;24.258;2022-10-31T08:53:58;3.83;;;2.37;;
20627;SDS011;10473;42.734;24.258;2022-10-31T08:56:40;8.83;;;5.27;;
20627;SDS011;10473;42.734;24.258;2022-10-31T08:59:25;12.50;;;8.57;;
20627;SDS011;10473;42.734;24.258;2022-10-31T09:02:21;7.27;;;4.23;;
20627;SDS011;10473;42.734;24.258;2022-10-31T09:04:52;4.87;;;4.03;;
20627;SDS011;10473;42.734;24.258;2022-10-31T09:07:24;7.30;;;5.00;;
20627;SDS011;10473;42.734;24.258;2022-10-31T09:09:58;3.00;;;2.38;;
20627;SDS011;10473;42.734;24.258;2022-10-31T09:12:27;4.63;;;3.23;;
20627;SDS011;10473;42.734;24.258;2022-10-31T09:15:15;5.78;;;2.67;;
20627;SDS011;10473;42.734;24.258;2022-10-31T09:17:47;5.45;;;3.50;;
20627;SDS011;10473;42.734;24.258;2022-10-31T09:20:29;3.75;;;2.92;;
20627;SDS011;10473;42.734;24.258;2022-10-31T09:23:04;6.57;;;1.90;;
20627;SDS011;10473;42.734;24.258;2022-10-31T09:25:36;2.95;;;1.83;;
20627;SDS011;10473;42.734;24.258;2022-10-31T09:28:30;3.83;;;2.28;;
20627;SDS011;10473;42.734;24.258;2022-10-31T09:31:05;2.28;;;2.00;;
20627;SDS011;10473;42.734;24.258;2022-10-31T09:33:53;3.30;;;1.92;;
20627;SDS011;10473;42.734;24.258;2022-10-31T09:36:41;2.28;;;2.08;;
20627;SDS011;10473;42.734;24.258;2022-10-31T09:39:30;2.42;;;1.70;;
20627;SDS011;10473;42.734;24.258;2022-10-31T09:45:11;4.20;;;1.83;;
20627;SDS011;10473;42.734;24.258;2022-10-31T09:47:52;2.47;;;2.20;;
20627;SDS011;10473;42.734;24.258;2022-10-31T09:50:35;2.38;;;1.65;;
20627;SDS011;10473;42.734;24.258;2022-10-31T09:53:28;2.95;;;2.10;;
20627;SDS011;10473;42.734;24.258;2022-10-31T09:56:03;2.55;;;2.17;;
20627;SDS011;10473;42.734;24.258;2022-10-31T09:58:37;2.65;;;1.88;;
20627;SDS011;10473;42.734;24.258;2022-10-31T10:01:13;5.20;;;2.97;;
20627;SDS011;10473;42.734;24.258;2022-10-31T10:03:50;3.28;;;2.17;;
20627;SDS011;10473;42.734;24.258;2022-10-31T10:06:45;3.53;;;2.33;;
20627;SDS011;10473;42.734;24.258;2022-10-31T10:09:48;4.28;;;2.30;;
20627;SDS011;10473;42.734;24.258;2022-10-31T10:12:47;2.03;;;1.63;;
20627;SDS011;10473;42.734;24.258;2022-10-31T10:15:37;3.23;;;2.00;;
20627;SDS011;10473;42.734;24.258;2022-10-31T10:18:23;3.10;;;2.20;;
20627;SDS011;10473;42.734;24.258;2022-10-31T10:21:02;5.00;;;2.23;;
20627;SDS011;10473;42.734;24.258;2022-10-31T10:23:41;1.97;;;1.73;;
20627;SDS011;10473;42.734;24.258;2022-10-31T10:26:24;3.27;;;2.10;;
20627;SDS011;10473;42.734;24.258;2022-10-31T10:31:50;2.63;;;2.00;;
20627;SDS011;10473;42.734;24.258;2022-10-31T10:34:22;4.83;;;2.90;;
20627;SDS011;10473;42.734;24.258;2022-10-31T10:36:56;3.70;;;1.97;;
20627;SDS011;10473;42.734;24.258;2022-10-31T10:39:30;3.25;;;2.20;;
20627;SDS011;10473;42.734;24.258;2022-10-31T10:42:04;2.55;;;1.83;;
20627;SDS011;10473;42.734;24.258;2022-10-31T10:44:57;4.88;;;2.50;;
20627;SDS011;10473;42.734;24.258;2022-10-31T10:47:44;3.27;;;2.07;;
20627;SDS011;10473;42.734;24.258;2022-10-31T10:50:20;3.40;;;1.83;;
20627;SDS011;10473;42.734;24.258;2022-10-31T10:52:55;1.93;;;1.77;;
20627;SDS011;10473;42.734;24.258;2022-10-31T10:55:30;6.50;;;2.50;;
20627;SDS011;10473;42.734;24.258;2022-10-31T10:58:05;3.93;;;1.90;;
20627;SDS011;10473;42.734;24.258;2022-10-31T11:00:37;4.40;;;2.00;;
20627;SDS011;10473;42.734;24.258;2022-10-31T11:03:07;5.47;;;2.40;;
20627;SDS011;10473;42.734;24.258;2022-10-31T11:05:36;2.23;;;1.97;;
20627;SDS011;10473;42.734;24.258;2022-10-31T11:08:06;3.80;;;2.00;;
20627;SDS011;10473;42.734;24.258;2022-10-31T11:10:34;2.80;;;2.33;;
20627;SDS011;10473;42.734;24.258;2022-10-31T11:13:17;3.83;;;2.50;;
20627;SDS011;10473;42.734;24.258;2022-10-31T11:15:51;5.43;;;2.33;;
20627;SDS011;10473;42.734;24.258;2022-10-31T11:18:22;4.73;;;2.10;;
20627;SDS011;10473;42.734;24.258;2022-10-31T11:20:53;6.90;;;2.47;;
20627;SDS011;10473;42.734;24.258;2022-10-31T11:23:23;4.50;;;3.20;;
20627;SDS011;10473;42.734;24.258;2022-10-31T11:25:52;3.57;;;2.73;;
20627;SDS011;10473;42.734;24.258;2022-10-31T11:28:22;3.97;;;3.10;;
20627;SDS011;10473;42.734;24.258;2022-10-31T11:30:53;3.15;;;2.40;;
20627;SDS011;10473;42.734;24.258;2022-10-31T11:33:25;5.97;;;3.30;;
20627;SDS011;10473;42.734;24.258;2022-10-31T11:35:56;3.70;;;2.90;;
20627;SDS011;10473;42.734;24.258;2022-10-31T11:38:28;5.05;;;3.63;;
20627;SDS011;10473;42.734;24.258;2022-10-31T11:41:02;5.43;;;4.10;;
20627;SDS011;10473;42.734;24.258;2022-10-31T11:43:37;4.87;;;3.37;;
20627;SDS011;10473;42.734;24.258;2022-10-31T11:46:11;4.47;;;3.53;;
20627;SDS011;10473;42.734;24.258;2022-10-31T11:48:47;7.80;;;3.13;;
20627;SDS011;10473;42.734;24.258;2022-10-31T11:51:19;7.17;;;3.57;;
20627;SDS011;10473;42.734;24.258;2022-10-31T11:53:50;7.13;;;3.10;;
20627;SDS011;10473;42.734;24.258;2022-10-31T11:56:19;5.47;;;2.50;;
20627;SDS011;10473;42.734;24.258;2022-10-31T11:58:54;4.13;;;3.00;;
20627;SDS011;10473;42.734;24.258;2022-10-31T12:01:25;2.53;;;2.10;;
20627;SDS011;10473;42.734;24.258;2022-10-31T12:03:57;4.97;;;1.97;;
20627;SDS011;10473;42.734;24.258;2022-10-31T12:06:31;3.23;;;1.80;;
20627;SDS011;10473;42.734;24.258;2022-10-31T12:09:02;5.00;;;1.90;;
20627;SDS011;10473;42.734;24.258;2022-10-31T12:11:41;2.90;;;2.07;;
20627;SDS011;10473;42.734;24.258;2022-10-31T12:14:18;7.00;;;3.67;;
20627;SDS011;10473;42.734;24.258;2022-10-31T12:16:59;3.00;;;1.50;;
20627;SDS011;10473;42.734;24.258;2022-10-31T12:19:36;6.77;;;2.47;;
20627;SDS011;10473;42.734;24.258;2022-10-31T12:22:12;3.77;;;2.27;;
20627;SDS011;10473;42.734;24.258;2022-10-31T12:27:41;1.27;;;1.17;;
20627;SDS011;10473;42.734;24.258;2022-10-31T12:30:21;2.10;;;1.27;;
20627;SDS011;10473;42.734;24.258;2022-10-31T12:32:57;2.07;;;1.40;;
20627;SDS011;10473;42.734;24.258;2022-10-31T12:35:40;3.03;;;1.67;;
20627;SDS011;10473;42.734;24.258;2022-10-31T12:38:20;5.27;;;1.47;;
20627;SDS011;10473;42.734;24.258;2022-10-31T12:41:20;1.97;;;1.23;;
20627;SDS011;10473;42.734;24.258;2022-10-31T12:44:03;4.30;;;1.20;;
20627;SDS011;10473;42.734;24.258;2022-10-31T12:46:44;2.00;;;1.23;;
20627;SDS011;10473;42.734;24.258;2022-10-31T12:49:27;3.07;;;0.90;;
20627;SDS011;10473;42.734;24.258;2022-10-31T12:52:17;2.90;;;1.70;;
20627;SDS011;10473;42.734;24.258;2022-10-31T12:55:01;2.53;;;1.37;;
20627;SDS011;10473;42.734;24.258;2022-10-31T12:57:38;2.57;;;1.40;;
20627;SDS011;10473;42.734;24.258;2022-10-31T13:00:11;3.80;;;2.10;;
20627;SDS011;10473;42.734;24.258;2022-10-31T13:02:43;2.00;;;0.93;;
20627;SDS011;10473;42.734;24.258;2022-10-31T13:05:17;1.60;;;1.20;;
20627;SDS011;10473;42.734;24.258;2022-10-31T13:07:52;3.27;;;1.60;;
20627;SDS011;10473;42.734;24.258;2022-10-31T13:10:25;1.80;;;1.60;;
20627;SDS011;10473;42.734;24.258;2022-10-31T13:13:00;2.47;;;1.60;;
20627;SDS011;10473;42.734;24.258;2022-10-31T13:15:32;1.90;;;1.70;;
20627;SDS011;10473;42.734;24.258;2022-10-31T13:18:25;2.77;;;1.50;;
20627;SDS011;10473;42.734;24.258;2022-10-31T13:21:00;3.07;;;2.07;;
20627;SDS011;10473;42.734;24.258;2022-10-31T13:23:36;2.93;;;1.97;;
20627;SDS011;10473;42.734;24.258;2022-10-31T13:26:08;1.20;;;1.10;;
20627;SDS011;10473;42.734;24.258;2022-10-31T13:28:40;2.57;;;1.50;;
20627;SDS011;10473;42.734;24.258;2022-10-31T13:31:12;2.13;;;1.37;;
20627;SDS011;10473;42.734;24.258;2022-10-31T13:33:41;3.00;;;2.30;;
20627;SDS011;10473;42.734;24.258;2022-10-31T13:36:18;4.00;;;1.77;;
20627;SDS011;10473;42.734;24.258;2022-10-31T13:38:56;2.27;;;1.37;;
20627;SDS011;10473;42.734;24.258;2022-10-31T13:41:33;3.57;;;1.30;;
20627;SDS011;10473;42.734;24.258;2022-10-31T13:44:11;2.10;;;1.43;;
20627;SDS011;10473;42.734;24.258;2022-10-31T13:46:43;2.33;;;1.97;;
20627;SDS011;10473;42.734;24.258;2022-10-31T13:49:23;1.70;;;1.27;;
20627;SDS011;10473;42.734;24.258;2022-10-31T13:52:16;5.43;;;1.27;;
20627;SDS011;10473;42.734;24.258;2022-10-31T13:54:50;1.50;;;1.23;;
20627;SDS011;10473;42.734;24.258;2022-10-31T13:57:26;2.67;;;1.50;;
20627;SDS011;10473;42.734;24.258;2022-10-31T14:00:03;2.83;;;1.80;;
20627;SDS011;10473;42.734;24.258;2022-10-31T14:02:43;3.27;;;1.43;;
20627;SDS011;10473;42.734;24.258;2022-10-31T14:05:19;2.57;;;1.87;;
20627;SDS011;10473;42.734;24.258;2022-10-31T14:07:52;4.37;;;2.10;;
20627;SDS011;10473;42.734;24.258;2022-10-31T14:10:24;2.67;;;1.77;;
20627;SDS011;10473;42.734;24.258;2022-10-31T14:12:54;4.00;;;2.00;;
20627;SDS011;10473;42.734;24.258;2022-10-31T14:15:31;3.33;;;1.67;;
20627;SDS011;10473;42.734;24.258;2022-10-31T14:18:00;3.53;;;1.97;;
20627;SDS011;10473;42.734;24.258;2022-10-31T14:20:32;4.33;;;2.50;;
20627;SDS011;10473;42.734;24.258;2022-10-31T14:23:12;3.63;;;3.10;;
20627;SDS011;10473;42.734;24.258;2022-10-31T14:26:18;5.57;;;2.97;;
20627;SDS011;10473;42.734;24.258;2022-10-31T14:28:57;5.30;;;3.30;;
20627;SDS011;10473;42.734;24.258;2022-10-31T14:31:30;4.70;;;2.73;;
20627;SDS011;10473;42.734;24.258;2022-10-31T14:34:04;4.73;;;2.57;;
20627;SDS011;10473;42.734;24.258;2022-10-31T14:36:48;3.90;;;2.80;;
20627;SDS011;10473;42.734;24.258;2022-10-31T14:39:25;5.10;;;2.10;;
20627;SDS011;10473;42.734;24.258;2022-10-31T14:42:04;3.27;;;2.77;;
20627;SDS011;10473;42.734;24.258;2022-10-31T14:47:39;2.93;;;1.73;;
20627;SDS011;10473;42.734;24.258;2022-10-31T14:50:16;2.87;;;1.50;;
20627;SDS011;10473;42.734;24.258;2022-10-31T14:52:51;13.10;;;8.33;;
20627;SDS011;10473;42.734;24.258;2022-10-31T14:55:22;11.67;;;7.17;;
20627;SDS011;10473;42.734;24.258;2022-10-31T14:57:52;7.30;;;4.17;;
20627;SDS011;10473;42.734;24.258;2022-10-31T15:00:23;3.20;;;2.53;;
20627;SDS011;10473;42.734;24.258;2022-10-31T15:02:56;2.20;;;1.97;;
20627;SDS011;10473;42.734;24.258;2022-10-31T15:05:31;4.53;;;2.10;;
20627;SDS011;10473;42.734;24.258;2022-10-31T15:08:01;2.60;;;1.50;;
20627;SDS011;10473;42.734;24.258;2022-10-31T15:10:31;2.50;;;1.10;;
20627;SDS011;10473;42.734;24.258;2022-10-31T15:13:09;2.27;;;1.37;;
20627;SDS011;10473;42.734;24.258;2022-10-31T15:15:38;1.90;;;1.33;;
20627;SDS011;10473;42.734;24.258;2022-10-31T15:18:13;3.73;;;2.10;;
20627;SDS011;10473;42.734;24.258;2022-10-31T15:20:44;1.53;;;1.33;;
20627;SDS011;10473;42.734;24.258;2022-10-31T15:23:15;3.27;;;1.30;;
20627;SDS011;10473;42.734;24.258;2022-10-31T15:25:49;2.10;;;1.13;;
20627;SDS011;10473;42.734;24.258;2022-10-31T15:28:21;1.57;;;1.13;;
20627;SDS011;10473;42.734;24.258;2022-10-31T15:30:51;1.30;;;1.00;;
20627;SDS011;10473;42.734;24.258;2022-10-31T15:33:21;1.67;;;0.97;;
20627;SDS011;10473;42.734;24.258;2022-10-31T15:35:57;2.83;;;1.00;;